Terminal Aerodrome Forecast
Issued by NWS Cleveland, OH

Home | Current Version | Previous Version | Text Only | Print | Product List | Glossary On
Versions: 1 2 3 4 5 6 7 8 9 10 11 12 13 14 15
000
FTUS41 KCLE 251100 CCA
TAFMFD
TAF COR
KMFD 251138Z 2512/2612 08008KT P6SM VCSH OVC060
     FM251600 08012KT P6SM -RA OVC045
      TEMPO 2516/2518 5SM -RA BR OVC025
     FM251800 08012G18KT 5SM -RA BR OVC025
     FM252000 05014G20KT 4SM -RA BR OVC015
     FM260200 02007KT P6SM OVC035
     FM260600 01010KT P6SM SCT040 BKN080
     FM261000 35008KT P6SM SCT120 BKN250=

USA.gov is the U.S. government's official web portal to all federal, state and local government web resources and services.